Time;durP1;ratioP1;P1;durP2;ratioP2;P2;SDS_P1;SDS_P2;PMS_P1;PMS_P2;Temp;Humidity;BMP_temperature;BMP_pressure;BME280_temperature;BME280_humidity;BME280_pressure;Samples;Min_cycle;Max_cycle;Signal;HPM_P1;HPM_P2
2022/08/16 00:02:09;;;;;;;;;;;;;;;20.49;100.00;100541.75;2612208;36;19951;-55
2022/08/16 00:04:37;;;;;;;;;;;;;;;20.42;100.00;100551.81;2612458;36;20012;-52
2022/08/16 00:07:06;;;;;;;;;;;;;;;20.43;100.00;100537.13;2609945;36;19985;-59
2022/08/16 00:09:36;;;;;;;;;;;;;;;20.39;100.00;100541.31;2613364;36;19981;-55
2022/08/16 00:12:06;;;;;;;;;;;;;;;20.35;100.00;100540.91;2613070;36;19939;-54
2022/08/16 00:14:34;;;;;;;;;;;;;;;20.21;100.00;100542.75;2614519;36;19997;-55
2022/08/16 00:17:02;;;;;;;;;;;;;;;20.17;100.00;100538.78;2614074;36;20026;-53
2022/08/16 00:19:32;;;;;;;;;;;;;;;20.17;100.00;100543.38;2611814;36;19950;-52
2022/08/16 00:22:01;;;;;;;;;;;;;;;20.21;100.00;100529.09;2613499;36;19957;-53
2022/08/16 00:24:30;;;;;;;;;;;;;;;20.22;100.00;100540.88;2613713;36;19958;-53
2022/08/16 00:27:04;;;;;;;;;;;;;;;20.19;100.00;100531.22;2611627;36;20428;-52
2022/08/16 00:29:33;;;;;;;;;;;;;;;20.17;100.00;100536.06;2611280;36;20665;-53
2022/08/16 00:32:01;;;;;;;;;;;;;;;20.16;100.00;100542.56;2608973;36;20626;-54
2022/08/16 00:34:29;;;;;;;;;;;;;;;20.13;100.00;100540.25;2612085;36;19954;-54
2022/08/16 00:36:58;;;;;;;;;;;;;;;20.10;100.00;100543.38;2610653;36;20432;-52
2022/08/16 00:39:26;;;;;;;;;;;;;;;20.06;100.00;100540.22;2610718;36;19943;-52
2022/08/16 00:41:54;;;;;;;;;;;;;;;20.04;100.00;100553.25;2610944;36;19951;-55
2022/08/16 00:44:25;;;;;;;;;;;;;;;19.99;100.00;100547.53;2611578;36;19985;-53
2022/08/16 00:46:56;;;;;;;;;;;;;;;19.95;100.00;100552.59;2611905;36;19950;-52
2022/08/16 00:49:24;;;;;;;;;;;;;;;19.88;100.00;100551.72;2610550;36;20252;-52
2022/08/16 00:51:53;;;;;;;;;;;;;;;19.81;100.00;100553.59;2607439;36;19990;-52
2022/08/16 00:54:21;;;;;;;;;;;;;;;19.73;100.00;100557.31;2611229;36;19981;-53
2022/08/16 00:56:51;;;;;;;;;;;;;;;19.69;100.00;100561.50;2611747;36;19950;-51
2022/08/16 00:59:21;;;;;;;;;;;;;;;19.67;100.00;100560.00;2604281;36;19950;-56
2022/08/16 01:01:52;;;;;;;;;;;;;;;19.63;100.00;100550.56;2603912;36;19989;-51
2022/08/16 01:04:22;;;;;;;;;;;;;;;19.63;100.00;100559.59;2611342;36;20437;-53
2022/08/16 01:06:50;;;;;;;;;;;;;;;19.66;100.00;100558.34;2611184;36;19955;-54
2022/08/16 01:09:19;;;;;;;;;;;;;;;19.69;100.00;100555.19;2611516;31;19950;-55
2022/08/16 01:11:48;;;;;;;;;;;;;;;19.56;100.00;100551.34;2610031;36;20419;-56
2022/08/16 01:14:19;;;;;;;;;;;;;;;19.51;100.00;100545.66;2613045;36;19965;-54
2022/08/16 01:16:48;;;;;;;;;;;;;;;19.47;100.00;100554.47;2610492;36;19958;-57
2022/08/16 01:19:23;;;;;;;;;;;;;;;19.41;100.00;100558.84;2611562;36;19942;-49
2022/08/16 01:21:54;;;;;;;;;;;;;;;19.46;100.00;100558.25;2610807;36;19954;-54
2022/08/16 01:24:28;;;;;;;;;;;;;;;19.39;100.00;100560.91;2610697;36;19942;-54
2022/08/16 01:27:00;;;;;;;;;;;;;;;19.25;100.00;100558.13;2611222;36;19951;-55
2022/08/16 01:29:31;;;;;;;;;;;;;;;19.27;100.00;100560.63;2611656;36;19946;-54
2022/08/16 01:31:59;;;;;;;;;;;;;;;19.25;100.00;100560.00;2610892;36;19950;-52
2022/08/16 01:34:27;;;;;;;;;;;;;;;19.28;100.00;100561.50;2610372;36;19947;-53
2022/08/16 01:36:59;;;;;;;;;;;;;;;19.18;100.00;100562.69;2610831;36;20463;-53
2022/08/16 01:39:30;;;;;;;;;;;;;;;19.20;100.00;100570.69;2610234;31;19981;-52
2022/08/16 01:41:58;;;;;;;;;;;;;;;19.22;100.00;100572.16;2609579;36;19962;-54
2022/08/16 01:44:26;;;;;;;;;;;;;;;19.22;100.00;100580.34;2610222;31;19934;-56
2022/08/16 01:46:56;;;;;;;;;;;;;;;19.18;100.00;100572.78;2612229;36;20352;-58
2022/08/16 01:49:25;;;;;;;;;;;;;;;19.22;100.00;100572.16;2613291;36;20357;-53
2022/08/16 01:51:57;;;;;;;;;;;;;;;19.25;100.00;100562.75;2613639;36;20336;-53
2022/08/16 01:54:25;;;;;;;;;;;;;;;19.17;100.00;100566.47;2612492;36;20629;-51
2022/08/16 01:56:56;;;;;;;;;;;;;;;19.10;100.00;100567.47;2613692;36;19977;-53
2022/08/16 01:59:25;;;;;;;;;;;;;;;19.04;100.00;100571.84;2611619;36;19978;-55
2022/08/16 02:01:54;;;;;;;;;;;;;;;19.01;100.00;100569.53;2603033;36;19954;-53
2022/08/16 02:04:24;;;;;;;;;;;;;;;19.04;100.00;100567.22;2610243;36;19958;-53
2022/08/16 02:06:53;;;;;;;;;;;;;;;19.04;100.00;100561.78;2604437;36;19957;-52
2022/08/16 02:09:22;;;;;;;;;;;;;;;19.02;100.00;100563.88;2610965;36;19946;-51
2022/08/16 02:11:53;;;;;;;;;;;;;;;18.99;100.00;100561.53;2610780;36;19995;-57
2022/08/16 02:14:24;;;;;;;;;;;;;;;18.96;100.00;100564.63;2611105;36;19962;-54
2022/08/16 02:16:52;;;;;;;;;;;;;;;18.94;100.00;100563.19;2612349;36;20400;-52
2022/08/16 02:19:22;;;;;;;;;;;;;;;18.88;100.00;100559.34;2610260;31;19978;-51
2022/08/16 02:21:51;;;;;;;;;;;;;;;18.87;100.00;100561.25;2610275;36;19950;-56
2022/08/16 02:24:20;;;;;;;;;;;;;;;18.87;100.00;100555.78;2611211;36;20227;-56
2022/08/16 02:26:48;;;;;;;;;;;;;;;18.86;100.00;100556.81;2611719;36;20381;-52
2022/08/16 02:29:17;;;;;;;;;;;;;;;18.80;100.00;100559.44;2611602;36;20367;-53
2022/08/16 02:31:48;;;;;;;;;;;;;;;18.73;100.00;100559.41;2609905;36;19963;-55
2022/08/16 02:34:17;;;;;;;;;;;;;;;18.74;100.00;100561.09;2611041;36;19973;-53
2022/08/16 02:36:45;;;;;;;;;;;;;;;18.64;100.00;100561.44;2610949;36;19951;-52
2022/08/16 02:39:14;;;;;;;;;;;;;;;18.58;100.00;100561.38;2610511;36;19958;-56
2022/08/16 02:41:43;;;;;;;;;;;;;;;18.55;100.00;100552.56;2610811;36;19951;-54
2022/08/16 02:44:13;;;;;;;;;;;;;;;18.55;100.00;100555.28;2611094;31;19977;-54
2022/08/16 02:46:41;;;;;;;;;;;;;;;18.59;100.00;100555.72;2610999;36;20038;-53
2022/08/16 02:49:12;;;;;;;;;;;;;;;18.58;100.00;100551.31;2610610;36;20513;-51
2022/08/16 02:51:41;;;;;;;;;;;;;;;18.44;100.00;100561.25;2610591;36;19961;-57
2022/08/16 02:54:10;;;;;;;;;;;;;;;18.42;100.00;100547.00;2611118;36;20646;-53
2022/08/16 02:56:38;;;;;;;;;;;;;;;18.42;100.00;100547.00;2611578;36;19958;-52
2022/08/16 02:59:06;;;;;;;;;;;;;;;18.34;100.00;100547.09;2610466;36;19954;-53
2022/08/16 03:01:35;;;;;;;;;;;;;;;18.31;100.00;100547.50;2610902;36;19951;-54
2022/08/16 03:04:05;;;;;;;;;;;;;;;18.31;100.00;100551.06;2610918;36;20432;-55
2022/08/16 03:06:36;;;;;;;;;;;;;;;18.20;100.00;100548.88;2611722;36;20431;-56
2022/08/16 03:09:05;;;;;;;;;;;;;;;18.26;100.00;100558.16;2614555;36;19970;-56
2022/08/16 03:11:33;;;;;;;;;;;;;;;18.25;100.00;100542.84;2607839;36;19977;-51
2022/08/16 03:14:01;;;;;;;;;;;;;;;18.31;100.00;100545.59;2615050;36;19950;-54
2022/08/16 03:16:29;;;;;;;;;;;;;;;18.31;100.00;100539.31;2614064;31;19962;-55
2022/08/16 03:18:57;;;;;;;;;;;;;;;18.26;100.00;100547.25;2613664;36;19939;-51
2022/08/16 03:21:26;;;;;;;;;;;;;;;18.14;100.00;100555.09;2614188;36;19969;-52
2022/08/16 03:23:57;;;;;;;;;;;;;;;18.16;100.00;100547.56;2614465;36;19950;-53
2022/08/16 03:26:25;;;;;;;;;;;;;;;18.20;100.00;100538.81;2614914;31;20037;-53
2022/08/16 03:28:53;;;;;;;;;;;;;;;18.17;100.00;100541.09;2614382;36;19947;-53
2022/08/16 03:31:21;;;;;;;;;;;;;;;18.12;100.00;100536.19;2614406;36;20436;-52
2022/08/16 03:33:49;;;;;;;;;;;;;;;18.12;100.00;100535.38;2614033;36;19950;-55
2022/08/16 03:36:17;;;;;;;;;;;;;;;18.12;100.00;100536.19;2613990;36;19985;-56
2022/08/16 03:38:45;;;;;;;;;;;;;;;18.10;100.00;100541.00;2614555;36;19973;-54
2022/08/16 03:41:16;;;;;;;;;;;;;;;18.11;100.00;100547.28;2614776;36;19958;-56
2022/08/16 03:43:44;;;;;;;;;;;;;;;18.09;100.00;100547.47;2614565;36;19947;-54
2022/08/16 03:46:12;;;;;;;;;;;;;;;18.12;100.00;100552.53;2613723;36;20839;-54
2022/08/16 03:48:40;;;;;;;;;;;;;;;18.19;100.00;100553.47;2614482;36;19962;-52
2022/08/16 03:51:10;;;;;;;;;;;;;;;18.17;100.00;100547.38;2614563;36;19950;-54
2022/08/16 03:53:38;;;;;;;;;;;;;;;18.09;100.00;100549.38;2614334;36;19939;-54
2022/08/16 03:56:06;;;;;;;;;;;;;;;18.09;100.00;100550.22;2614043;36;19950;-52
2022/08/16 03:58:37;;;;;;;;;;;;;;;18.08;100.00;100559.44;2613717;36;19951;-55
2022/08/16 04:01:06;;;;;;;;;;;;;;;18.00;100.00;100548.66;2615185;31;20337;-58
2022/08/16 04:03:34;;;;;;;;;;;;;;;18.00;100.00;100559.53;2614010;31;19985;-50
2022/08/16 04:06:02;;;;;;;;;;;;;;;18.02;100.00;100552.00;2613984;36;19946;-56
2022/08/16 04:08:30;;;;;;;;;;;;;;;18.04;100.00;100552.69;2612803;36;20000;-53
2022/08/16 04:10:59;;;;;;;;;;;;;;;18.08;100.00;100550.41;2607019;36;19958;-53
2022/08/16 04:13:27;;;;;;;;;;;;;;;18.08;100.00;100544.97;2607279;36;19950;-54
2022/08/16 04:15:58;;;;;;;;;;;;;;;18.01;100.00;100550.34;2614474;36;19946;-55
2022/08/16 04:18:26;;;;;;;;;;;;;;;17.96;100.00;100559.09;2613196;36;19954;-54
2022/08/16 04:20:54;;;;;;;;;;;;;;;18.00;100.00;100565.81;2612092;36;19950;-55
2022/08/16 04:23:22;;;;;;;;;;;;;;;17.99;100.00;100563.28;2611475;31;19947;-56
2022/08/16 04:25:51;;;;;;;;;;;;;;;17.82;100.00;100568.09;2611362;36;19951;-54
2022/08/16 04:28:19;;;;;;;;;;;;;;;17.88;100.00;100563.78;2613405;36;20395;-54
2022/08/16 04:30:47;;;;;;;;;;;;;;;17.88;100.00;100561.88;2611839;36;20471;-52
2022/08/16 04:33:18;;;;;;;;;;;;;;;17.90;100.00;100559.84;2613581;36;19954;-53
2022/08/16 04:35:46;;;;;;;;;;;;;;;18.05;100.00;100573.44;2614563;36;19985;-52
2022/08/16 04:38:14;;;;;;;;;;;;;;;17.99;100.00;100566.00;2612301;36;20441;-54
2022/08/16 04:40:42;;;;;;;;;;;;;;;17.97;100.00;100577.09;2614492;36;19957;-54
2022/08/16 04:43:10;;;;;;;;;;;;;;;17.99;100.00;100572.31;2614520;36;20408;-55
2022/08/16 04:45:39;;;;;;;;;;;;;;;17.94;100.00;100577.47;2614088;36;19959;-54
2022/08/16 04:48:07;;;;;;;;;;;;;;;17.99;100.00;100574.19;2613874;36;20077;-53
2022/08/16 04:50:38;;;;;;;;;;;;;;;18.00;100.00;100582.16;2614462;36;20348;-56
2022/08/16 04:53:06;;;;;;;;;;;;;;;17.96;100.00;100578.16;2614142;31;19946;-52
2022/08/16 04:55:34;;;;;;;;;;;;;;;17.93;100.00;100591.28;2614313;36;19955;-53
2022/08/16 04:58:03;;;;;;;;;;;;;;;18.06;100.00;100598.78;2614394;36;19951;-58
2022/08/16 05:00:32;;;;;;;;;;;;;;;18.03;100.00;100597.28;2613684;36;19973;-54
2022/08/16 05:03:03;;;;;;;;;;;;;;;18.00;100.00;100603.94;2613484;36;20435;-55
2022/08/16 05:05:31;;;;;;;;;;;;;;;17.99;100.00;100602.28;2613874;36;19974;-54
2022/08/16 05:08:02;;;;;;;;;;;;;;;18.05;100.00;100606.13;2611450;36;20479;-55
2022/08/16 05:10:30;;;;;;;;;;;;;;;18.08;100.00;100616.63;2613522;36;19947;-54
2022/08/16 05:12:58;;;;;;;;;;;;;;;18.02;100.00;100618.22;2608139;36;19997;-54
2022/08/16 05:15:27;;;;;;;;;;;;;;;18.07;100.00;100614.94;2606636;36;20456;-55
2022/08/16 05:17:55;;;;;;;;;;;;;;;18.09;100.00;100621.03;2614565;36;19978;-51
2022/08/16 05:20:23;;;;;;;;;;;;;;;18.19;100.00;100612.56;2613901;36;19939;-56
2022/08/16 05:22:52;;;;;;;;;;;;;;;18.30;100.00;100619.38;2615146;36;19951;-56
2022/08/16 05:25:22;;;;;;;;;;;;;;;18.50;100.00;100614.97;2614292;36;20534;-52
2022/08/16 05:27:50;;;;;;;;;;;;;;;18.51;100.00;100613.94;2613699;36;19954;-54
2022/08/16 05:30:19;;;;;;;;;;;;;;;18.59;100.00;100609.41;2613283;36;19955;-52
2022/08/16 05:32:47;;;;;;;;;;;;;;;18.66;100.00;100602.13;2615134;36;19967;-53
2022/08/16 05:35:15;;;;;;;;;;;;;;;18.63;100.00;100611.53;2614770;36;19958;-53
2022/08/16 05:37:44;;;;;;;;;;;;;;;18.67;100.00;100607.38;2614865;36;19954;-53
2022/08/16 05:40:13;;;;;;;;;;;;;;;18.72;100.00;100615.81;2614852;36;20056;-51
2022/08/16 05:42:44;;;;;;;;;;;;;;;18.83;100.00;100622.63;2614870;36;19946;-55
2022/08/16 05:45:12;;;;;;;;;;;;;;;18.81;100.00;100621.97;2614124;36;19953;-53
2022/08/16 05:47:40;;;;;;;;;;;;;;;18.79;100.00;100624.06;2614366;36;19955;-53
2022/08/16 05:50:09;;;;;;;;;;;;;;;18.78;100.00;100618.81;2614811;36;19947;-54
2022/08/16 05:52:37;;;;;;;;;;;;;;;18.90;100.00;100614.53;2615257;36;20378;-55
2022/08/16 05:55:08;;;;;;;;;;;;;;;18.89;100.00;100615.59;2615754;47;20483;-52
2022/08/16 05:57:36;;;;;;;;;;;;;;;18.82;100.00;100618.22;2614880;36;19947;-55
2022/08/16 06:00:11;;;;;;;;;;;;;;;19.06;100.00;100616.94;2614484;36;19962;-57
2022/08/16 06:02:39;;;;;;;;;;;;;;;19.18;100.00;100614.53;2614630;36;19946;-57
2022/08/16 06:05:08;;;;;;;;;;;;;;;19.21;100.00;100621.47;2612533;36;19951;-52
2022/08/16 06:07:36;;;;;;;;;;;;;;;19.18;100.00;100621.88;2615190;36;20340;-50
2022/08/16 06:10:05;;;;;;;;;;;;;;;19.20;100.00;100619.81;2615143;31;20466;-54
2022/08/16 06:12:33;;;;;;;;;;;;;;;19.13;100.00;100635.28;2612084;36;19954;-49
2022/08/16 06:15:02;;;;;;;;;;;;;;;19.13;100.00;100641.56;2612698;36;19957;-55
2022/08/16 06:17:34;;;;;;;;;;;;;;;19.13;100.00;100633.38;2606707;36;19939;-53
2022/08/16 06:20:02;;;;;;;;;;;;;;;19.16;100.00;100624.81;2605180;31;19950;-53
2022/08/16 06:22:30;;;;;;;;;;;;;;;19.23;100.00;100633.06;2610572;31;20340;-51
2022/08/16 06:24:58;;;;;;;;;;;;;;;19.21;100.00;100627.78;2610945;36;20013;-52
2022/08/16 06:27:26;;;;;;;;;;;;;;;19.25;100.00;100631.78;2611264;36;19954;-52
2022/08/16 06:29:56;;;;;;;;;;;;;;;19.24;100.00;100630.13;2610544;36;19981;-52
2022/08/16 06:32:24;;;;;;;;;;;;;;;19.34;100.00;100620.72;2612936;36;19985;-54
2022/08/16 06:34:55;;;;;;;;;;;;;;;19.39;100.00;100631.88;2611856;36;20479;-58
2022/08/16 06:37:23;;;;;;;;;;;;;;;19.51;100.00;100624.84;2610798;36;19965;-53
2022/08/16 06:39:51;;;;;;;;;;;;;;;19.56;100.00;100629.69;2608506;36;19985;-50
2022/08/16 06:42:19;;;;;;;;;;;;;;;19.74;100.00;100626.41;2610699;31;20410;-55
2022/08/16 06:44:48;;;;;;;;;;;;;;;19.73;100.00;100624.75;2608994;36;19981;-50
2022/08/16 06:47:16;;;;;;;;;;;;;;;19.93;100.00;100631.19;2610250;36;20018;-49
2022/08/16 06:49:44;;;;;;;;;;;;;;;20.08;100.00;100639.22;2612311;36;20361;-51
2022/08/16 06:52:15;;;;;;;;;;;;;;;20.34;100.00;100637.59;2610116;36;19970;-51
2022/08/16 06:54:43;;;;;;;;;;;;;;;20.35;100.00;100644.78;2611394;31;19974;-55
2022/08/16 06:57:12;;;;;;;;;;;;;;;20.55;100.00;100639.31;2610690;36;19954;-49
2022/08/16 06:59:40;;;;;;;;;;;;;;;20.82;100.00;100636.69;2610579;36;19951;-54
2022/08/16 07:02:08;;;;;;;;;;;;;;;20.61;100.00;100644.00;2611762;36;20360;-51
2022/08/16 07:04:36;;;;;;;;;;;;;;;20.51;100.00;100640.81;2614680;36;19950;-50
2022/08/16 07:07:05;;;;;;;;;;;;;;;20.79;100.00;100639.84;2612031;36;19951;-50
2022/08/16 07:09:36;;;;;;;;;;;;;;;20.71;100.00;100645.50;2610225;36;19943;-50
2022/08/16 07:12:04;;;;;;;;;;;;;;;20.62;100.00;100640.19;2612184;36;19954;-52
2022/08/16 07:14:32;;;;;;;;;;;;;;;20.81;100.00;100649.50;2614621;36;20463;-50
2022/08/16 07:17:00;;;;;;;;;;;;;;;20.84;100.00;100648.25;2613025;36;19955;-50
2022/08/16 07:19:31;;;;;;;;;;;;;;;20.97;100.00;100648.25;2604410;36;19950;-51
2022/08/16 07:22:01;;;;;;;;;;;;;;;21.21;100.00;100645.94;2606710;36;20029;-51
2022/08/16 07:24:29;;;;;;;;;;;;;;;21.20;100.00;100657.09;2613562;31;19951;-48
2022/08/16 07:27:00;;;;;;;;;;;;;;;21.15;100.00;100663.19;2614212;36;19939;-49
2022/08/16 07:29:29;;;;;;;;;;;;;;;21.20;100.00;100660.69;2613721;36;19950;-49
2022/08/16 07:31:57;;;;;;;;;;;;;;;21.47;100.00;100657.91;2613915;36;20441;-49
2022/08/16 07:34:25;;;;;;;;;;;;;;;21.59;100.00;100664.44;2613083;31;20429;-50
2022/08/16 07:36:53;;;;;;;;;;;;;;;21.51;100.00;100664.69;2613424;36;19950;-51
2022/08/16 07:39:21;;;;;;;;;;;;;;;21.72;100.00;100670.97;2611612;31;20440;-49
2022/08/16 07:41:49;;;;;;;;;;;;;;;21.75;100.00;100667.78;2612355;31;20042;-49
2022/08/16 07:44:20;;;;;;;;;;;;;;;21.88;100.00;100662.28;2612424;36;19943;-54
2022/08/16 07:46:48;;;;;;;;;;;;;;;22.29;100.00;100671.16;2613466;36;19954;-51
2022/08/16 07:49:17;;;;;;;;;;;;;;;22.23;100.00;100661.91;2613000;36;19959;-54
2022/08/16 07:51:45;;;;;;;;;;;;;;;22.64;100.00;100674.34;2610852;36;19985;-47
2022/08/16 07:54:13;;;;;;;;;;;;;;;22.79;100.00;100667.72;2611106;31;19977;-49
2022/08/16 07:56:41;;;;;;;;;;;;;;;22.95;100.00;100660.84;2612569;36;19958;-51
2022/08/16 07:59:09;;;;;;;;;;;;;;;23.11;100.00;100667.72;2613719;36;19977;-49
2022/08/16 08:01:40;;;;;;;;;;;;;;;22.87;100.00;100668.31;2613341;31;20499;-48
2022/08/16 08:04:11;;;;;;;;;;;;;;;22.92;100.00;100670.38;2613835;36;19950;-54
2022/08/16 08:06:40;;;;;;;;;;;;;;;23.21;100.00;100673.56;2611065;31;20034;-52
2022/08/16 08:09:09;;;;;;;;;;;;;;;23.33;100.00;100677.25;2610813;36;20047;-55
2022/08/16 08:11:37;;;;;;;;;;;;;;;23.20;100.00;100672.72;2610967;36;19977;-50
2022/08/16 08:14:05;;;;;;;;;;;;;;;23.26;100.00;100679.22;2610224;36;19981;-50
2022/08/16 08:16:34;;;;;;;;;;;;;;;23.40;100.00;100669.78;2610785;31;19951;-53
2022/08/16 08:19:11;;;;;;;;;;;;;;;23.36;100.00;100668.56;2610960;36;19950;-54
2022/08/16 08:21:41;;;;;;;;;;;;;;;23.76;100.00;100670.91;2605749;31;19947;-53
2022/08/16 08:24:11;;;;;;;;;;;;;;;24.26;100.00;100671.81;2610037;31;20038;-53
2022/08/16 08:26:39;;;;;;;;;;;;;;;23.96;100.00;100681.69;2610566;31;19969;-54
2022/08/16 08:29:07;;;;;;;;;;;;;;;24.10;100.00;100682.38;2611259;36;20354;-53
2022/08/16 08:31:36;;;;;;;;;;;;;;;24.13;100.00;100684.66;2602803;36;19958;-53
2022/08/16 08:34:07;;;;;;;;;;;;;;;24.18;100.00;100688.66;2611048;36;20321;-54
2022/08/16 08:36:36;;;;;;;;;;;;;;;24.25;100.00;100686.66;2610906;36;19985;-53
2022/08/16 08:39:05;;;;;;;;;;;;;;;24.10;100.00;100676.88;2611244;36;19958;-52
2022/08/16 08:41:33;;;;;;;;;;;;;;;23.97;100.00;100679.81;2603466;36;19998;-51
2022/08/16 08:44:03;;;;;;;;;;;;;;;24.34;100.00;100685.25;2609238;36;19974;-52
2022/08/16 08:46:31;;;;;;;;;;;;;;;24.10;100.00;100693.38;2609661;36;20097;-54
2022/08/16 08:48:59;;;;;;;;;;;;;;;24.23;100.00;100686.03;2611072;36;20394;-50
2022/08/16 08:51:30;;;;;;;;;;;;;;;24.37;100.00;100692.22;2608107;36;20023;-53
2022/08/16 08:53:58;;;;;;;;;;;;;;;24.45;100.00;100692.69;2607237;31;19974;-52
2022/08/16 08:56:29;;;;;;;;;;;;;;;24.72;100.00;100695.13;2611642;36;20010;-53
2022/08/16 08:58:57;;;;;;;;;;;;;;;25.06;100.00;100687.19;2609901;36;20452;-51
2022/08/16 09:01:28;;;;;;;;;;;;;;;25.27;100.00;100684.94;2611442;31;20325;-51
2022/08/16 09:03:56;;;;;;;;;;;;;;;25.12;100.00;100696.44;2610055;36;20324;-52
2022/08/16 09:06:24;;;;;;;;;;;;;;;24.89;100.00;100689.78;2611400;36;19989;-53
2022/08/16 09:08:55;;;;;;;;;;;;;;;25.12;100.00;100693.69;2610414;36;19957;-50
2022/08/16 09:11:24;;;;;;;;;;;;;;;25.35;100.00;100692.88;2612594;36;19957;-55
2022/08/16 09:13:52;;;;;;;;;;;;;;;25.57;100.00;100695.88;2610222;36;19959;-48
2022/08/16 09:16:20;;;;;;;;;;;;;;;25.38;100.00;100692.41;2609717;31;19975;-48
2022/08/16 09:18:48;;;;;;;;;;;;;;;25.27;100.00;100690.47;2608616;36;19953;-51
2022/08/16 09:21:16;;;;;;;;;;;;;;;25.18;100.00;100690.78;2609075;36;19954;-52
2022/08/16 09:23:44;;;;;;;;;;;;;;;25.45;100.00;100695.88;2609883;36;19950;-54
2022/08/16 09:26:16;;;;;;;;;;;;;;;25.56;100.00;100704.38;2609441;36;19967;-50
2022/08/16 09:28:44;;;;;;;;;;;;;;;25.62;100.00;100700.69;2608344;36;20437;-50
2022/08/16 09:31:13;;;;;;;;;;;;;;;26.01;100.00;100703.78;2601991;36;19981;-50
2022/08/16 09:33:41;;;;;;;;;;;;;;;25.91;100.00;100707.09;2607760;36;19981;-50
2022/08/16 09:36:09;;;;;;;;;;;;;;;26.49;100.00;100702.56;2602810;36;19990;-51
2022/08/16 09:38:38;;;;;;;;;;;;;;;26.82;100.00;100695.47;2609946;36;20003;-50
2022/08/16 09:41:07;;;;;;;;;;;;;;;26.76;100.00;100713.03;2611396;36;19954;-52
2022/08/16 09:43:38;;;;;;;;;;;;;;;26.90;100.00;100703.34;2606493;36;19946;-54
2022/08/16 09:46:08;;;;;;;;;;;;;;;26.51;100.00;100705.91;2610962;36;19985;-52
2022/08/16 09:48:40;;;;;;;;;;;;;;;26.27;100.00;100713.44;2609934;36;20019;-50
2022/08/16 09:51:09;;;;;;;;;;;;;;;26.37;100.00;100712.81;2609617;36;20033;-53
2022/08/16 09:53:37;;;;;;;;;;;;;;;26.32;100.00;100709.94;2610151;36;20362;-52
2022/08/16 09:56:06;;;;;;;;;;;;;;;26.26;100.00;100710.91;2610513;36;19958;-49
2022/08/16 09:58:37;;;;;;;;;;;;;;;26.63;100.00;100713.28;2609930;36;19958;-52
2022/08/16 10:01:05;;;;;;;;;;;;;;;26.43;100.00;100710.97;2609798;31;19946;-51
2022/08/16 10:03:33;;;;;;;;;;;;;;;26.27;100.00;100713.44;2610111;36;19950;-51
2022/08/16 10:06:02;;;;;;;;;;;;;;;26.48;100.00;100711.09;2610965;36;19966;-53
2022/08/16 10:08:30;;;;;;;;;;;;;;;26.88;100.00;100716.59;2608473;36;19955;-54
2022/08/16 10:13:43;;;;;;;;;;;;;;;26.73;100.00;100708.81;2608539;36;19950;-54
2022/08/16 10:16:12;;;;;;;;;;;;;;;26.76;100.00;100713.03;2610287;36;19946;-55
2022/08/16 10:18:41;;;;;;;;;;;;;;;27.21;100.00;100714.94;2609125;36;23119;-50
2022/08/16 10:21:10;;;;;;;;;;;;;;;27.37;100.00;100720.72;2607678;36;19943;-53
2022/08/16 10:23:38;;;;;;;;;;;;;;;27.81;100.00;100712.53;2610312;36;19955;-54
2022/08/16 10:26:06;;;;;;;;;;;;;;;27.92;100.00;100719.06;2610728;36;19943;-55
2022/08/16 10:28:34;;;;;;;;;;;;;;;27.95;100.00;100710.25;2610700;36;20045;-52
2022/08/16 10:31:06;;;;;;;;;;;;;;;28.30;100.00;100709.06;2611048;31;20021;-54
2022/08/16 10:33:35;;;;;;;;;;;;;;;27.76;100.00;100720.78;2610006;36;20609;-54
2022/08/16 10:36:05;;;;;;;;;;;;;;;27.44;100.00;100726.91;2602698;36;19970;-56
2022/08/16 10:38:34;;;;;;;;;;;;;;;27.76;100.00;100720.78;2610111;36;19979;-54
2022/08/16 10:41:02;;;;;;;;;;;;;;;27.88;100.00;100729.78;2605927;31;20415;-56
2022/08/16 10:43:33;;;;;;;;;;;;;;;27.82;100.00;100719.75;2610872;54;20074;-55
2022/08/16 10:46:02;;;;;;;;;;;;;;;28.20;98.46;100731.91;2610103;31;19977;-54
2022/08/16 10:48:32;;;;;;;;;;;;;;;28.11;94.69;100730.69;2610509;36;20424;-56
2022/08/16 10:51:01;;;;;;;;;;;;;;;28.34;100.00;100726.81;2607682;36;19958;-56
2022/08/16 10:53:30;;;;;;;;;;;;;;;28.33;100.00;100736.22;2608886;36;22034;-57
2022/08/16 10:55:58;;;;;;;;;;;;;;;28.35;100.00;100738.75;2610961;36;19946;-56
2022/08/16 10:58:26;;;;;;;;;;;;;;;28.05;100.00;100734.50;2611919;36;19964;-54
2022/08/16 11:00:55;;;;;;;;;;;;;;;28.51;97.43;100737.00;2610165;36;19950;-55
2022/08/16 11:03:23;;;;;;;;;;;;;;;28.67;100.00;100742.47;2611933;31;19950;-55
2022/08/16 11:05:54;;;;;;;;;;;;;;;28.46;96.18;100734.97;2612696;36;20056;-57
2022/08/16 11:08:22;;;;;;;;;;;;;;;28.81;93.63;100747.59;2611036;36;20348;-55
2022/08/16 11:10:51;;;;;;;;;;;;;;;28.41;100.00;100746.00;2611497;36;19951;-57
2022/08/16 11:13:20;;;;;;;;;;;;;;;27.98;98.16;100747.66;2613161;31;19954;-58
2022/08/16 11:15:48;;;;;;;;;;;;;;;27.42;100.00;100752.03;2611824;36;19957;-57
2022/08/16 11:18:16;;;;;;;;;;;;;;;27.48;100.00;100747.44;2610935;36;20463;-58
2022/08/16 11:20:46;;;;;;;;;;;;;;;27.93;100.00;100748.38;2613924;31;20436;-56
2022/08/16 11:23:17;;;;;;;;;;;;;;;28.06;100.00;100749.97;2612717;36;20517;-56
2022/08/16 11:25:45;;;;;;;;;;;;;;;27.95;100.00;100746.22;2613700;36;19981;-57
2022/08/16 11:28:15;;;;;;;;;;;;;;;28.21;100.00;100750.19;2612246;36;19941;-58
2022/08/16 11:30:44;;;;;;;;;;;;;;;28.42;100.00;100753.22;2611716;36;19950;-58
2022/08/16 11:33:12;;;;;;;;;;;;;;;28.35;100.00;100755.34;2611538;36;19946;-58
2022/08/16 11:35:41;;;;;;;;;;;;;;;28.25;100.00;100751.38;2612433;36;19950;-57
2022/08/16 11:38:11;;;;;;;;;;;;;;;28.08;100.00;100762.47;2611075;36;19954;-58
2022/08/16 11:40:45;;;;;;;;;;;;;;;27.54;96.30;100762.19;2606584;36;19950;-58
2022/08/16 11:43:14;;;;;;;;;;;;;;;27.42;94.33;100767.81;2613515;36;20063;-57
2022/08/16 11:45:42;;;;;;;;;;;;;;;27.87;100.00;100771.53;2606019;36;19950;-58
2022/08/16 11:48:12;;;;;;;;;;;;;;;28.76;100.00;100761.41;2613214;36;20475;-57
2022/08/16 11:50:44;;;;;;;;;;;;;;;29.02;94.12;100770.81;2614155;36;19958;-57
2022/08/16 11:53:13;;;;;;;;;;;;;;;29.65;87.98;100771.13;2613971;31;20455;-58
2022/08/16 11:55:44;;;;;;;;;;;;;;;29.52;87.17;100769.63;2615042;31;19943;-56
2022/08/16 11:58:12;;;;;;;;;;;;;;;29.54;87.65;100777.66;2613784;36;19946;-57
2022/08/16 12:00:42;;;;;;;;;;;;;;;29.44;90.27;100780.34;2613909;36;19950;-55
2022/08/16 12:03:10;;;;;;;;;;;;;;;29.85;89.48;100783.47;2611153;36;19939;-58
2022/08/16 12:05:39;;;;;;;;;;;;;;;29.60;95.42;100787.69;2611787;36;19974;-59
2022/08/16 12:08:08;;;;;;;;;;;;;;;29.50;99.27;100787.63;2612067;36;19968;-57
2022/08/16 12:10:37;;;;;;;;;;;;;;;28.97;99.48;100790.13;2612769;36;19958;-60
2022/08/16 12:13:09;;;;;;;;;;;;;;;29.26;100.00;100785.19;2609664;31;19950;-57
2022/08/16 12:15:37;;;;;;;;;;;;;;;29.64;91.08;100790.78;2609578;36;19947;-58
2022/08/16 12:18:06;;;;;;;;;;;;;;;28.85;97.87;100790.28;2606697;31;19950;-54
2022/08/16 12:20:35;;;;;;;;;;;;;;;28.97;100.00;100785.44;2608332;36;19950;-57
2022/08/16 12:23:03;;;;;;;;;;;;;;;29.33;94.00;100776.69;2605686;36;19958;-58
2022/08/16 12:25:33;;;;;;;;;;;;;;;29.83;92.89;100786.50;2605616;36;19951;-58
2022/08/16 12:28:01;;;;;;;;;;;;;;;29.41;99.56;100784.50;2607943;36;19943;-55
2022/08/16 12:30:32;;;;;;;;;;;;;;;29.47;100.00;100786.19;2610000;36;20470;-57
2022/08/16 12:33:01;;;;;;;;;;;;;;;29.77;98.72;100787.56;2610599;36;19951;-59
2022/08/16 12:35:31;;;;;;;;;;;;;;;30.36;96.04;100778.22;2610703;36;19973;-56
2022/08/16 12:38:00;;;;;;;;;;;;;;;30.45;96.26;100781.34;2610996;36;19947;-54
2022/08/16 12:40:30;;;;;;;;;;;;;;;30.02;95.79;100784.13;2609095;36;19950;-56